Time;durP1;ratioP1;P1;durP2;ratioP2;P2;SDS_P1;SDS_P2;PMS_P1;PMS_P2;Temp;Humidity;BMP_temperature;BMP_pressure;BME280_temperature;BME280_humidity;BME280_pressure;Samples;Min_cycle;Max_cycle;Signal;HPM_P1;HPM_P2
2024/04/12 00:00:47;;;;;;;1.70;1.60;;;7.70;96.70;;;;;;475202;250;27939;-72
2024/04/12 00:02:47;;;;;;;1.60;1.50;;;7.70;96.60;;;;;;475133;250;27886;-71
2024/04/12 00:04:47;;;;;;;4.17;1.60;;;7.60;96.70;;;;;;475121;250;27962;-71
2024/04/12 00:06:54;;;;;;;3.10;1.80;;;7.60;96.90;;;;;;475320;249;28377;-72
2024/04/12 00:08:57;;;;;;;2.57;1.93;;;7.60;96.80;;;;;;475318;249;27871;-71
2024/04/12 00:10:56;;;;;;;1.90;1.70;;;7.60;96.90;;;;;;475071;248;27573;-71
2024/04/12 00:12:58;;;;;;;1.83;1.47;;;7.50;97.10;;;;;;475294;249;28103;-70
2024/04/12 00:15:05;;;;;;;4.00;1.60;;;7.50;97.20;;;;;;475119;250;28569;-70
2024/04/12 00:17:01;;;;;;;3.63;1.60;;;7.50;97.50;;;;;;474846;250;28339;-73
2024/04/12 00:19:12;;;;;;;1.90;1.80;;;7.50;97.30;;;;;;475239;250;27787;-71
2024/04/12 00:21:08;;;;;;;3.03;1.77;;;7.50;97.30;;;;;;474988;250;28096;-72
2024/04/12 00:23:12;;;;;;;1.80;1.50;;;7.50;97.40;;;;;;475263;249;28120;-71
2024/04/12 00:25:12;;;;;;;3.13;1.50;;;7.50;97.50;;;;;;475159;249;27815;-71
2024/04/12 00:27:15;;;;;;;2.80;1.80;;;7.50;97.30;;;;;;475235;249;27909;-70
2024/04/12 00:29:25;;;;;;;1.73;1.63;;;7.60;97.40;;;;;;475086;250;27910;-71
2024/04/12 00:31:27;;;;;;;2.10;1.60;;;7.60;97.40;;;;;;475298;249;28148;-71
2024/04/12 00:33:32;;;;;;;2.87;1.80;;;7.50;97.20;;;;;;475279;249;28482;-71
2024/04/12 00:35:34;;;;;;;1.90;1.80;;;7.50;97.40;;;;;;474701;250;28634;-71
2024/04/12 00:37:33;;;;;;;3.80;1.87;;;7.60;97.30;;;;;;474955;250;28051;-72
2024/04/12 00:39:40;;;;;;;2.40;1.70;;;7.70;97.20;;;;;;475142;250;28301;-71
2024/04/12 00:41:39;;;;;;;2.80;1.70;;;7.60;97.00;;;;;;474905;250;28036;-72
2024/04/12 00:43:45;;;;;;;3.40;1.73;;;7.60;97.00;;;;;;475312;249;27971;-71
2024/04/12 00:45:41;;;;;;;3.07;1.90;;;7.60;96.90;;;;;;474959;250;27665;-71
2024/04/12 00:47:42;;;;;;;3.90;2.17;;;7.60;97.00;;;;;;475307;249;28315;-72
2024/04/12 00:49:49;;;;;;;6.23;2.00;;;7.50;97.20;;;;;;475308;249;28008;-71
2024/04/12 00:51:49;;;;;;;2.10;1.90;;;7.60;97.40;;;;;;474939;250;28406;-71
2024/04/12 00:53:46;;;;;;;4.37;1.93;;;7.50;97.50;;;;;;474962;250;28352;-71
2024/04/12 00:55:47;;;;;;;4.40;1.73;;;7.50;97.50;;;;;;475307;250;28421;-71
2024/04/12 00:57:49;;;;;;;2.97;1.87;;;7.50;97.60;;;;;;475289;249;28450;-72
2024/04/12 00:59:51;;;;;;;2.30;1.70;;;7.40;97.80;;;;;;475293;249;27967;-70
2024/04/12 01:01:52;;;;;;;2.07;1.67;;;7.30;98.10;;;;;;475224;249;27919;-72
2024/04/12 01:03:56;;;;;;;3.57;2.13;;;7.30;98.30;;;;;;475027;250;27426;-71
2024/04/12 01:05:54;;;;;;;1.80;1.70;;;7.20;98.20;;;;;;474742;250;28060;-71
2024/04/12 01:07:55;;;;;;;3.77;1.80;;;7.30;98.20;;;;;;475284;249;27699;-72
2024/04/12 01:09:57;;;;;;;3.13;1.70;;;7.20;98.10;;;;;;475292;249;27903;-72
2024/04/12 01:11:59;;;;;;;2.50;1.80;;;7.30;98.10;;;;;;475208;250;27940;-71
2024/04/12 01:13:59;;;;;;;4.50;1.90;;;7.20;98.30;;;;;;475195;250;28013;-70
2024/04/12 01:16:00;;;;;;;5.70;1.63;;;7.20;98.50;;;;;;475290;249;27787;-71
2024/04/12 01:18:04;;;;;;;2.53;1.80;;;7.20;98.70;;;;;;475300;249;28106;-71
2024/04/12 01:20:04;;;;;;;1.90;1.67;;;7.10;98.40;;;;;;475082;250;27846;-71
2024/04/12 01:22:04;;;;;;;2.97;2.00;;;7.10;98.40;;;;;;475167;250;27933;-71
2024/04/12 01:24:06;;;;;;;1.70;1.60;;;7.20;98.30;;;;;;475290;249;28002;-73
2024/04/12 01:26:09;;;;;;;2.00;1.80;;;7.20;98.20;;;;;;475197;250;27657;-71
2024/04/12 01:28:09;;;;;;;1.80;1.60;;;7.20;98.40;;;;;;475038;250;28364;-71
2024/04/12 01:30:11;;;;;;;2.03;1.87;;;7.10;98.50;;;;;;475233;249;28288;-71
2024/04/12 01:32:12;;;;;;;4.70;3.20;;;7.10;98.60;;;;;;475151;250;28511;-72
2024/04/12 01:34:13;;;;;;;4.80;3.20;;;7.10;98.70;;;;;;475157;248;28395;-72
2024/04/12 01:36:12;;;;;;;2.50;2.10;;;7.20;98.90;;;;;;475184;250;28387;-72
2024/04/12 01:38:19;;;;;;;8.27;2.70;;;7.20;98.80;;;;;;475299;250;27950;-72
2024/04/12 01:40:24;;;;;;;3.80;2.23;;;7.20;98.80;;;;;;475270;250;28382;-71
2024/04/12 01:42:25;;;;;;;3.27;1.93;;;7.20;98.80;;;;;;475271;249;28026;-72
2024/04/12 01:44:26;;;;;;;1.93;1.77;;;7.20;98.60;;;;;;475290;249;27552;-72
2024/04/12 01:46:27;;;;;;;3.00;1.90;;;7.20;98.70;;;;;;475288;250;27993;-73
2024/04/12 01:48:29;;;;;;;1.93;1.60;;;7.20;98.50;;;;;;475275;250;27908;-71
2024/04/12 01:50:31;;;;;;;2.23;1.80;;;7.20;98.60;;;;;;475272;249;27558;-72
2024/04/12 01:52:32;;;;;;;1.80;1.70;;;7.20;98.60;;;;;;475277;250;27893;-72
2024/04/12 01:54:32;;;;;;;1.83;1.70;;;7.20;98.70;;;;;;475220;250;27827;-71
2024/04/12 01:56:34;;;;;;;3.70;1.73;;;7.20;98.90;;;;;;475300;249;27967;-72
2024/04/12 01:58:35;;;;;;;3.47;2.10;;;7.20;98.90;;;;;;475263;250;27870;-71
2024/04/12 02:00:36;;;;;;;2.23;1.87;;;7.20;98.70;;;;;;475284;249;28512;-72
2024/04/12 02:02:37;;;;;;;1.87;1.73;;;7.20;98.60;;;;;;475278;249;29407;-71
2024/04/12 02:04:39;;;;;;;2.00;1.80;;;7.20;98.40;;;;;;475262;249;28048;-72
2024/04/12 02:06:42;;;;;;;1.67;1.57;;;7.20;98.30;;;;;;475276;249;28699;-72
2024/04/12 02:08:41;;;;;;;4.20;1.70;;;7.20;98.40;;;;;;475173;250;28094;-71
2024/04/12 02:10:42;;;;;;;3.50;1.60;;;7.20;98.60;;;;;;475290;249;27618;-72
2024/04/12 02:12:46;;;;;;;2.37;1.60;;;7.20;98.60;;;;;;475263;249;27811;-73
2024/04/12 02:14:45;;;;;;;2.23;2.03;;;7.20;98.70;;;;;;475187;249;27952;-72
2024/04/12 02:16:50;;;;;;;3.40;1.70;;;7.30;98.60;;;;;;475217;248;27929;-72
2024/04/12 02:18:47;;;;;;;3.50;1.60;;;7.30;98.50;;;;;;474983;250;27898;-72
2024/04/12 02:20:49;;;;;;;1.73;1.50;;;7.30;98.50;;;;;;475305;249;27908;-72
2024/04/12 02:22:50;;;;;;;3.07;1.93;;;7.20;99.00;;;;;;475305;249;27984;-73
2024/04/12 02:24:51;;;;;;;4.13;2.43;;;7.20;99.20;;;;;;475310;249;27855;-71
2024/04/12 02:26:53;;;;;;;3.77;2.00;;;7.10;99.20;;;;;;475280;249;27926;-72
2024/04/12 02:28:58;;;;;;;7.77;1.80;;;7.10;99.30;;;;;;475242;249;27991;-72
2024/04/12 02:31:00;;;;;;;2.27;1.80;;;7.00;99.40;;;;;;474931;250;27898;-72
2024/04/12 02:32:57;;;;;;;3.13;1.97;;;7.00;99.50;;;;;;474594;250;28015;-72
2024/04/12 02:34:57;;;;;;;7.20;2.23;;;7.00;99.40;;;;;;475196;249;27711;-71
2024/04/12 02:37:01;;;;;;;2.93;2.10;;;6.90;99.50;;;;;;475095;250;27660;-72
2024/04/12 02:39:06;;;;;;;4.50;2.10;;;6.90;99.70;;;;;;475084;250;28494;-71
2024/04/12 02:41:01;;;;;;;1.97;1.80;;;6.90;99.70;;;;;;474816;250;28439;-71
2024/04/12 02:43:04;;;;;;;3.20;1.83;;;7.00;99.50;;;;;;475287;249;28660;-73
2024/04/12 02:45:05;;;;;;;3.73;2.47;;;7.00;99.40;;;;;;475155;250;28463;-71
2024/04/12 02:47:05;;;;;;;2.67;1.90;;;7.00;99.60;;;;;;475197;250;28425;-72
2024/04/12 02:49:10;;;;;;;3.07;1.83;;;7.00;99.60;;;;;;475251;250;28596;-73
2024/04/12 02:51:07;;;;;;;2.37;1.60;;;7.00;99.70;;;;;;475037;250;27988;-72
2024/04/12 02:53:17;;;;;;;3.70;1.90;;;7.00;99.90;;;;;;475322;249;27979;-71
2024/04/12 02:55:13;;;;;;;2.77;1.70;;;6.90;99.80;;;;;;474728;250;28186;-72
2024/04/12 02:57:15;;;;;;;3.20;1.93;;;6.90;99.80;;;;;;475319;249;27773;-71
2024/04/12 02:59:15;;;;;;;2.07;1.97;;;6.90;99.80;;;;;;475315;249;27993;-72
2024/04/12 03:01:17;;;;;;;2.00;1.80;;;6.90;99.90;;;;;;475314;249;27853;-72
2024/04/12 03:03:18;;;;;;;1.90;1.67;;;6.90;99.90;;;;;;475268;249;28049;-72
2024/04/12 03:05:19;;;;;;;4.13;1.97;;;7.00;99.90;;;;;;475286;249;27927;-71
2024/04/12 03:07:20;;;;;;;4.50;1.90;;;6.90;99.90;;;;;;475321;249;27716;-72
2024/04/12 03:09:22;;;;;;;1.60;1.50;;;6.90;99.90;;;;;;475315;249;27908;-72
2024/04/12 03:11:25;;;;;;;4.83;2.00;;;7.00;99.90;;;;;;475318;249;27835;-72
2024/04/12 03:13:24;;;;;;;5.70;1.60;;;7.00;99.70;;;;;;475186;250;27879;-71
2024/04/12 03:15:28;;;;;;;3.47;1.80;;;7.00;99.70;;;;;;475311;249;27752;-71
2024/04/12 03:17:27;;;;;;;5.00;1.60;;;7.00;99.70;;;;;;475084;250;28386;-72
2024/04/12 03:19:28;;;;;;;3.53;2.00;;;7.00;99.70;;;;;;475293;250;28450;-72
2024/04/12 03:21:30;;;;;;;3.83;2.13;;;7.10;99.70;;;;;;475277;250;28410;-73
2024/04/12 03:23:31;;;;;;;7.87;2.23;;;7.10;99.70;;;;;;475261;249;28819;-72
2024/04/12 03:25:32;;;;;;;4.33;2.13;;;7.00;99.40;;;;;;475302;249;28521;-72
2024/04/12 03:27:33;;;;;;;3.03;2.43;;;7.10;99.40;;;;;;475299;249;28025;-73
2024/04/12 03:29:34;;;;;;;2.23;1.80;;;7.00;99.60;;;;;;475296;249;27845;-71
2024/04/12 03:31:38;;;;;;;4.50;2.63;;;7.00;99.90;;;;;;475286;249;28023;-72
2024/04/12 03:33:42;;;;;;;3.73;2.37;;;7.00;99.90;;;;;;475144;250;27772;-72
2024/04/12 03:35:45;;;;;;;7.03;2.10;;;7.00;99.90;;;;;;475312;249;27808;-72
2024/04/12 03:38:24;;;;;;;2.37;1.80;;;6.90;99.90;;;;;;475261;250;27951;-73
2024/04/12 03:40:00;;;;;;;4.33;2.00;;;7.00;99.90;;;;;;473611;250;27948;-73
2024/04/12 03:42:08;;;;;;;2.20;1.83;;;7.00;99.90;;;;;;474596;250;27824;-72
2024/04/12 03:44:08;;;;;;;2.50;2.00;;;7.00;99.90;;;;;;475176;248;28296;-73
2024/04/12 03:46:10;;;;;;;2.80;2.13;;;7.10;99.90;;;;;;475274;250;28317;-72
2024/04/12 03:48:13;;;;;;;3.07;2.20;;;7.00;99.90;;;;;;475165;250;27967;-72
2024/04/12 03:50:13;;;;;;;2.40;2.20;;;7.00;99.90;;;;;;475025;250;27926;-71
2024/04/12 03:52:19;;;;;;;4.50;2.10;;;7.00;99.90;;;;;;475266;249;27907;-71
2024/04/12 03:54:19;;;;;;;3.50;2.07;;;6.90;99.90;;;;;;474965;250;27940;-71
2024/04/12 03:56:20;;;;;;;1.90;1.70;;;6.90;99.90;;;;;;475290;249;28393;-72
2024/04/12 03:58:22;;;;;;;3.17;1.80;;;6.80;99.90;;;;;;475307;249;28195;-73
2024/04/12 04:00:22;;;;;;;2.20;2.00;;;6.80;99.90;;;;;;475256;250;28594;-71
2024/04/12 04:02:25;;;;;;;2.60;1.80;;;6.80;99.90;;;;;;475278;249;28305;-71
2024/04/12 04:04:28;;;;;;;3.87;1.70;;;6.80;99.90;;;;;;475165;250;28108;-71
2024/04/12 04:06:35;;;;;;;2.57;1.80;;;6.80;99.90;;;;;;475269;249;28017;-71
2024/04/12 04:08:30;;;;;;;3.10;1.70;;;6.80;99.90;;;;;;474800;250;27924;-71
2024/04/12 04:10:31;;;;;;;2.00;1.60;;;6.80;99.90;;;;;;475194;249;27672;-72
2024/04/12 04:12:33;;;;;;;2.70;1.73;;;6.80;99.90;;;;;;474779;249;27923;-70
2024/04/12 04:14:34;;;;;;;2.37;1.93;;;6.80;99.90;;;;;;475099;248;27978;-71
2024/04/12 04:16:38;;;;;;;2.70;1.90;;;6.70;99.90;;;;;;475217;249;28013;-72
2024/04/12 04:18:41;;;;;;;4.30;1.80;;;6.80;99.90;;;;;;475308;249;27661;-73
2024/04/12 04:20:41;;;;;;;3.30;1.80;;;6.70;99.90;;;;;;475209;249;28303;-71
2024/04/12 04:22:42;;;;;;;2.50;1.67;;;6.70;99.90;;;;;;475300;249;28051;-72
2024/04/12 04:24:43;;;;;;;3.80;1.90;;;6.70;99.90;;;;;;475318;249;27817;-71
2024/04/12 04:26:44;;;;;;;3.50;2.10;;;6.70;99.90;;;;;;475286;249;27985;-72
2024/04/12 04:28:46;;;;;;;2.70;1.70;;;6.70;99.90;;;;;;475308;250;28008;-72
2024/04/12 04:30:47;;;;;;;3.27;1.83;;;6.70;99.90;;;;;;475286;249;28064;-72
2024/04/12 04:32:48;;;;;;;3.80;2.10;;;6.60;99.90;;;;;;475279;249;27928;-72
2024/04/12 04:34:54;;;;;;;8.53;2.07;;;6.60;99.90;;;;;;475278;249;27943;-73
2024/04/12 04:36:55;;;;;;;1.63;1.50;;;6.70;99.90;;;;;;474767;250;27774;-72
2024/04/12 04:38:52;;;;;;;4.80;2.50;;;6.60;99.90;;;;;;475007;250;28036;-72
2024/04/12 04:40:53;;;;;;;4.00;1.57;;;6.60;99.90;;;;;;475273;250;27859;-70
2024/04/12 04:42:54;;;;;;;3.63;1.87;;;6.60;99.90;;;;;;475273;249;27945;-72
2024/04/12 04:44:56;;;;;;;4.83;1.73;;;6.60;99.90;;;;;;475310;249;27891;-72
2024/04/12 04:46:57;;;;;;;1.90;1.80;;;6.60;99.90;;;;;;475268;249;27895;-72
2024/04/12 04:48:58;;;;;;;3.57;2.07;;;6.50;99.90;;;;;;475291;249;28029;-72
2024/04/12 04:51:01;;;;;;;3.47;2.13;;;6.50;99.90;;;;;;475270;249;27992;-71
2024/04/12 04:53:02;;;;;;;4.93;2.60;;;6.50;99.90;;;;;;475145;250;27991;-71
2024/04/12 04:55:02;;;;;;;2.90;1.80;;;6.50;99.90;;;;;;475235;250;27592;-73
2024/04/12 04:57:03;;;;;;;1.93;1.70;;;6.50;99.90;;;;;;475272;249;27728;-72
2024/04/12 04:59:06;;;;;;;2.40;2.00;;;6.50;99.90;;;;;;475293;249;28130;-72
2024/04/12 05:01:06;;;;;;;5.23;2.00;;;6.50;99.90;;;;;;475179;250;28012;-72
2024/04/12 05:03:07;;;;;;;2.73;1.83;;;6.50;99.90;;;;;;475284;249;27954;-71
2024/04/12 05:05:08;;;;;;;2.33;1.93;;;6.50;99.90;;;;;;475185;250;27920;-73
2024/04/12 05:07:15;;;;;;;4.00;2.07;;;6.50;99.90;;;;;;475257;249;28424;-72
2024/04/12 05:09:12;;;;;;;3.07;2.03;;;6.50;99.90;;;;;;474898;249;28480;-72
2024/04/12 05:11:12;;;;;;;3.40;2.53;;;6.60;99.90;;;;;;475216;249;28704;-71
2024/04/12 05:13:17;;;;;;;3.20;2.57;;;6.70;99.90;;;;;;475290;250;27963;-71
2024/04/12 05:17:31;;;;;;;5.83;2.20;;;6.70;99.90;;;;;;451704;261;28618;-71
2024/04/12 05:19:32;;;;;;;3.03;2.00;;;6.70;99.90;;;;;;451697;263;29572;-71
2024/04/12 05:21:35;;;;;;;5.10;2.30;;;6.70;99.90;;;;;;451724;263;28319;-72
2024/04/12 05:23:34;;;;;;;3.67;2.30;;;6.70;99.90;;;;;;451707;263;28707;-71
2024/04/12 05:25:36;;;;;;;4.97;1.87;;;6.60;99.90;;;;;;451713;263;28319;-72
2024/04/12 05:27:37;;;;;;;2.73;2.13;;;6.70;99.90;;;;;;451704;263;28183;-72
2024/04/12 05:29:38;;;;;;;2.30;1.90;;;6.70;99.90;;;;;;451698;263;28126;-72
2024/04/12 05:31:42;;;;;;;6.20;2.67;;;6.70;99.90;;;;;;451725;263;28265;-72
2024/04/12 05:33:43;;;;;;;3.50;2.40;;;6.70;99.90;;;;;;451711;263;28113;-72
2024/04/12 05:35:42;;;;;;;2.03;1.93;;;6.70;99.90;;;;;;451685;263;27829;-72
2024/04/12 05:37:43;;;;;;;2.93;1.90;;;6.70;99.90;;;;;;451688;263;28217;-71
2024/04/12 05:39:44;;;;;;;3.07;1.93;;;6.80;99.90;;;;;;451715;263;28570;-73
2024/04/12 05:41:46;;;;;;;3.00;2.03;;;6.80;99.90;;;;;;451740;263;27785;-72
2024/04/12 05:43:47;;;;;;;3.93;2.40;;;6.80;99.90;;;;;;451700;263;28133;-72
2024/04/12 05:45:49;;;;;;;3.03;1.90;;;6.80;99.90;;;;;;451725;263;28102;-71
2024/04/12 05:47:54;;;;;;;2.57;1.97;;;6.70;99.90;;;;;;451704;263;28473;-72
2024/04/12 05:49:51;;;;;;;2.60;1.80;;;6.80;99.90;;;;;;451698;263;28704;-73
2024/04/12 05:51:55;;;;;;;2.20;1.90;;;6.80;99.90;;;;;;454243;250;28789;-72
2024/04/12 05:53:53;;;;;;;3.67;2.10;;;7.00;99.90;;;;;;475056;250;29159;-72
2024/04/12 05:56:20;;;;;;;1.73;1.63;;;7.00;99.90;;;;;;475232;249;28528;-71
2024/04/12 05:58:00;;;;;;;4.10;1.90;;;7.20;99.90;;;;;;473315;250;27970;-72
2024/04/12 05:59:57;;;;;;;2.90;2.20;;;7.30;99.90;;;;;;475012;250;27713;-72
2024/04/12 06:02:01;;;;;;;3.07;2.10;;;7.30;99.90;;;;;;475282;249;27541;-72
2024/04/12 06:04:00;;;;;;;2.10;1.90;;;7.40;99.90;;;;;;475117;250;27948;-72
2024/04/12 06:06:01;;;;;;;2.90;1.87;;;7.50;99.90;;;;;;475273;249;27540;-71
2024/04/12 06:08:03;;;;;;;2.17;1.90;;;7.50;99.90;;;;;;475255;250;27949;-72
2024/04/12 06:10:04;;;;;;;3.37;2.10;;;7.60;99.90;;;;;;475259;250;27883;-73
2024/04/12 06:12:06;;;;;;;2.53;1.83;;;7.70;99.90;;;;;;475225;250;27640;-72
2024/04/12 06:14:06;;;;;;;3.07;1.83;;;7.80;99.90;;;;;;475138;250;27889;-72
2024/04/12 06:16:07;;;;;;;2.50;1.67;;;7.90;99.90;;;;;;475285;249;28368;-73
2024/04/12 06:18:12;;;;;;;2.90;2.13;;;7.90;99.90;;;;;;475292;249;27920;-72
2024/04/12 06:20:12;;;;;;;3.23;1.80;;;8.00;99.90;;;;;;475223;250;28496;-71
2024/04/12 06:22:13;;;;;;;2.27;1.60;;;8.10;99.90;;;;;;475272;250;28437;-72
2024/04/12 06:24:16;;;;;;;2.57;1.90;;;8.10;99.90;;;;;;475277;249;28351;-71
2024/04/12 06:26:16;;;;;;;9.07;2.30;;;8.10;99.90;;;;;;475227;250;28555;-72
2024/04/12 06:28:19;;;;;;;3.67;2.50;;;8.20;99.90;;;;;;475280;249;27898;-72
2024/04/12 06:30:24;;;;;;;3.63;2.20;;;8.30;99.90;;;;;;475199;250;28094;-72
2024/04/12 06:32:20;;;;;;;2.57;2.10;;;8.50;99.90;;;;;;474905;250;27952;-71
2024/04/12 06:34:22;;;;;;;5.67;2.37;;;8.70;99.90;;;;;;475303;249;27941;-71
2024/04/12 06:36:24;;;;;;;3.67;1.90;;;8.80;99.90;;;;;;475258;250;28008;-70
2024/04/12 06:38:23;;;;;;;3.50;2.13;;;8.90;99.90;;;;;;475049;250;27929;-74
2024/04/12 06:40:28;;;;;;;3.87;2.17;;;9.00;99.90;;;;;;475314;249;27964;-71
2024/04/12 06:42:27;;;;;;;3.67;2.20;;;9.10;99.90;;;;;;475106;250;27632;-71
2024/04/12 06:44:30;;;;;;;5.50;2.60;;;9.20;99.50;;;;;;475200;250;27790;-71
2024/04/12 06:46:31;;;;;;;2.90;2.13;;;9.20;99.90;;;;;;475107;250;28028;-72
2024/04/12 06:48:31;;;;;;;3.30;1.90;;;9.30;99.90;;;;;;474993;250;28150;-73
2024/04/12 06:50:31;;;;;;;4.00;2.07;;;9.40;99.90;;;;;;475091;250;28025;-71
2024/04/12 06:52:34;;;;;;;4.77;2.17;;;9.60;99.90;;;;;;475273;249;28050;-71
2024/04/12 06:54:36;;;;;;;3.27;2.50;;;9.60;99.60;;;;;;475173;250;27890;-71
2024/04/12 06:56:38;;;;;;;4.30;2.30;;;9.60;99.30;;;;;;475285;250;28316;-72
2024/04/12 06:58:39;;;;;;;3.43;2.00;;;9.70;99.10;;;;;;475278;249;28381;-73
2024/04/12 07:00:40;;;;;;;4.77;2.80;;;9.80;99.20;;;;;;475060;250;28031;-72
2024/04/12 07:02:46;;;;;;;3.93;2.10;;;9.90;99.20;;;;;;475289;249;27992;-72
2024/04/12 07:04:42;;;;;;;3.07;2.20;;;10.00;99.10;;;;;;474961;250;27931;-72
2024/04/12 07:06:44;;;;;;;3.70;2.10;;;10.10;99.20;;;;;;475303;249;27932;-71
2024/04/12 07:08:49;;;;;;;2.87;2.13;;;10.10;99.20;;;;;;475284;250;27983;-71
2024/04/12 07:10:48;;;;;;;3.97;2.33;;;10.20;99.10;;;;;;474760;250;27911;-72
2024/04/12 07:12:48;;;;;;;6.37;2.30;;;10.30;98.90;;;;;;475153;250;27660;-72
2024/04/12 07:14:49;;;;;;;5.13;1.97;;;10.40;99.00;;;;;;475278;249;28113;-71
2024/04/12 07:16:50;;;;;;;4.13;2.40;;;10.60;99.00;;;;;;475278;249;28002;-73
2024/04/12 07:18:51;;;;;;;4.93;1.97;;;10.60;99.10;;;;;;475317;249;28037;-71
2024/04/12 07:20:58;;;;;;;7.40;2.30;;;10.60;99.30;;;;;;475297;249;28526;-73
2024/04/12 07:22:55;;;;;;;2.90;2.17;;;10.70;99.90;;;;;;474832;250;28535;-72
2024/04/12 07:24:55;;;;;;;4.43;2.10;;;10.80;99.90;;;;;;475259;249;28655;-73
2024/04/12 07:26:56;;;;;;;9.00;2.70;;;10.90;99.90;;;;;;475296;249;28037;-72
2024/04/12 07:29:01;;;;;;;4.00;2.00;;;11.00;99.90;;;;;;475298;249;28105;-72
2024/04/12 07:31:04;;;;;;;6.43;2.50;;;11.20;99.90;;;;;;475257;249;28142;-72
2024/04/12 07:33:05;;;;;;;3.30;1.80;;;11.30;99.90;;;;;;475072;250;27959;-74
2024/04/12 07:35:24;;;;;;;5.13;2.00;;;11.40;99.90;;;;;;475173;250;27948;-72
2024/04/12 07:37:12;;;;;;;7.90;2.63;;;11.50;99.90;;;;;;472188;250;28056;-71
2024/04/12 07:39:09;;;;;;;7.43;2.13;;;11.50;99.90;;;;;;474980;250;28019;-72
2024/04/12 07:41:11;;;;;;;5.37;2.27;;;11.60;99.90;;;;;;475296;249;28368;-74
2024/04/12 07:43:12;;;;;;;7.40;3.10;;;11.70;99.90;;;;;;475280;250;28219;-74
2024/04/12 07:45:16;;;;;;;5.40;2.13;;;11.70;99.90;;;;;;475281;249;28288;-73
2024/04/12 07:47:16;;;;;;;5.33;2.00;;;11.80;99.90;;;;;;475072;250;28604;-74
2024/04/12 07:49:16;;;;;;;4.93;2.10;;;11.80;99.90;;;;;;474917;250;28236;-72
2024/04/12 07:51:20;;;;;;;4.50;2.27;;;11.90;99.90;;;;;;475293;249;28400;-73
2024/04/12 07:53:24;;;;;;;5.07;2.37;;;12.10;99.90;;;;;;475034;250;29284;-73
2024/04/12 07:55:25;;;;;;;3.73;1.90;;;12.30;99.90;;;;;;475263;249;28377;-72
2024/04/12 07:57:29;;;;;;;3.30;2.30;;;12.30;99.90;;;;;;475276;249;28279;-71
2024/04/12 07:59:28;;;;;;;7.23;2.07;;;12.40;99.90;;;;;;475134;250;28208;-71
2024/04/12 08:01:30;;;;;;;3.63;2.50;;;12.50;99.90;;;;;;475267;249;28170;-71
2024/04/12 08:03:36;;;;;;;6.07;2.43;;;12.50;99.90;;;;;;475248;250;28275;-70
2024/04/12 08:05:31;;;;;;;4.23;2.27;;;12.60;99.90;;;;;;474847;250;28827;-73
2024/04/12 08:07:38;;;;;;;6.80;2.50;;;12.70;99.90;;;;;;475311;249;28392;-74
2024/04/12 08:09:45;;;;;;;3.50;2.30;;;12.80;99.90;;;;;;474921;250;28220;-71
2024/04/12 08:11:51;;;;;;;5.53;2.27;;;12.90;99.90;;;;;;475182;250;28271;-70
2024/04/12 08:13:50;;;;;;;4.63;2.03;;;12.90;99.90;;;;;;474725;250;28298;-72
2024/04/12 08:15:49;;;;;;;5.80;1.83;;;13.20;99.90;;;;;;474987;250;28723;-75
2024/04/12 08:17:49;;;;;;;2.43;2.00;;;13.20;99.90;;;;;;475140;250;28768;-74
2024/04/12 08:19:49;;;;;;;5.70;2.10;;;13.30;99.90;;;;;;475244;250;28872;-72
2024/04/12 08:21:54;;;;;;;5.80;2.30;;;13.50;99.90;;;;;;475269;249;28717;-73
2024/04/12 08:23:52;;;;;;;2.50;1.90;;;13.60;99.90;;;;;;475043;250;28532;-72
2024/04/12 08:25:53;;;;;;;2.63;2.00;;;13.50;99.90;;;;;;475303;249;28289;-74
2024/04/12 08:27:54;;;;;;;2.80;1.77;;;13.60;99.90;;;;;;475297;250;28411;-73
2024/04/12 08:29:58;;;;;;;4.63;2.27;;;13.70;99.90;;;;;;475288;249;28405;-74
2024/04/12 08:32:04;;;;;;;2.40;1.77;;;13.60;99.70;;;;;;475260;249;28989;-73
2024/04/12 08:34:03;;;;;;;1.70;1.60;;;13.80;99.80;;;;;;474970;250;28693;-72
2024/04/12 08:36:02;;;;;;;6.50;2.10;;;13.80;99.90;;;;;;475168;250;28851;-71
2024/04/12 08:38:12;;;;;;;3.30;1.83;;;14.00;99.80;;;;;;475270;249;29188;-72
2024/04/12 08:40:11;;;;;;;3.87;1.97;;;14.00;99.60;;;;;;474614;250;28365;-72
2024/04/12 08:42:14;;;;;;;3.87;1.80;;;14.00;99.90;;;;;;475261;249;28601;-72
2024/04/12 08:44:15;;;;;;;3.43;1.93;;;14.10;99.50;;;;;;475187;249;28518;-72
2024/04/12 08:46:17;;;;;;;7.03;2.30;;;14.20;99.80;;;;;;475165;250;29741;-70
2024/04/12 08:48:16;;;;;;;4.90;2.00;;;14.40;98.90;;;;;;475126;250;28863;-70
2024/04/12 08:50:17;;;;;;;4.73;2.20;;;14.40;99.30;;;;;;475261;249;28814;-72
2024/04/12 08:52:31;;;;;;;4.97;1.60;;;14.50;99.40;;;;;;475296;249;28801;-71
2024/04/12 08:54:32;;;;;;;1.83;1.50;;;14.80;98.50;;;;;;475273;250;29430;-72
2024/04/12 08:56:34;;;;;;;5.17;1.63;;;14.80;98.10;;;;;;475155;250;29730;-72
2024/04/12 08:58:36;;;;;;;3.67;1.50;;;14.80;98.10;;;;;;475280;250;28828;-73
2024/04/12 09:00:36;;;;;;;1.80;1.70;;;14.90;98.30;;;;;;475141;250;28941;-73
2024/04/12 09:02:40;;;;;;;2.97;1.60;;;15.10;97.80;;;;;;475255;250;28774;-70
2024/04/12 09:04:39;;;;;;;7.53;1.60;;;15.20;96.90;;;;;;475032;250;28830;-72
2024/04/12 09:06:39;;;;;;;4.30;1.70;;;15.30;96.50;;;;;;475202;250;29183;-71
2024/04/12 09:08:41;;;;;;;2.13;1.60;;;15.50;98.30;;;;;;475292;250;28768;-72
2024/04/12 09:10:42;;;;;;;2.50;1.40;;;15.50;97.20;;;;;;475249;249;28823;-71
2024/04/12 09:12:44;;;;;;;2.87;1.67;;;15.60;97.40;;;;;;475275;250;28780;-72
2024/04/12 09:14:44;;;;;;;2.00;1.73;;;15.70;96.90;;;;;;475269;249;29333;-72
2024/04/12 09:16:48;;;;;;;2.10;1.40;;;15.80;96.30;;;;;;475283;249;29293;-71
2024/04/12 09:18:50;;;;;;;3.03;1.90;;;15.60;95.70;;;;;;475193;249;29227;-72
2024/04/12 09:21:01;;;;;;;3.07;1.60;;;15.60;96.00;;;;;;475027;250;29293;-73
2024/04/12 09:22:55;;;;;;;1.43;1.10;;;15.70;96.70;;;;;;474813;250;28845;-72
2024/04/12 09:24:58;;;;;;;4.20;1.53;;;15.90;96.60;;;;;;475286;249;28794;-72
2024/04/12 09:27:06;;;;;;;2.37;1.43;;;15.90;96.70;;;;;;475152;250;28827;-74
2024/04/12 09:29:09;;;;;;;2.80;1.77;;;16.10;95.40;;;;;;474856;250;28829;-74
2024/04/12 09:33:20;;;;;;;2.20;1.60;;;16.30;95.10;;;;;;456649;250;28944;-72
2024/04/12 09:35:06;;;;;;;1.77;1.67;;;16.20;95.80;;;;;;474027;250;28810;-70
2024/04/12 09:39:41;;;;;;;4.53;1.70;;;15.70;96.50;;;;;;475226;250;28828;-72
2024/04/12 09:41:32;;;;;;;2.37;1.50;;;15.60;97.20;;;;;;474176;250;28887;-73
2024/04/12 09:43:36;;;;;;;3.60;1.83;;;15.70;96.80;;;;;;475180;250;28833;-75
2024/04/12 10:39:11;;;;;;;1.50;1.40;;;17.70;96.40;;;;;;475232;250;28802;-72
2024/04/12 10:41:07;;;;;;;2.60;1.53;;;18.00;96.20;;;;;;474508;250;28918;-73
2024/04/12 10:43:04;;;;;;;1.20;1.20;;;18.00;95.30;;;;;;474943;250;28845;-72
2024/04/12 10:45:07;;;;;;;1.77;1.50;;;18.00;94.50;;;;;;475241;249;28899;-73
2024/04/12 10:47:12;;;;;;;1.50;1.40;;;17.70;94.80;;;;;;475133;250;28813;-71
2024/04/12 10:49:09;;;;;;;1.40;1.30;;;17.40;95.10;;;;;;474876;250;29154;-73
2024/04/12 10:51:09;;;;;;;1.60;1.50;;;17.20;95.70;;;;;;475175;250;29351;-74
2024/04/12 10:53:12;;;;;;;2.43;1.50;;;16.90;95.90;;;;;;475265;249;29357;-72
2024/04/12 10:55:16;;;;;;;1.77;1.20;;;16.90;97.00;;;;;;475173;250;29387;-71
2024/04/12 10:57:19;;;;;;;1.60;1.50;;;17.00;97.30;;;;;;474998;250;28928;-74
2024/04/12 10:59:26;;;;;;;2.47;1.60;;;17.00;96.10;;;;;;474551;250;28776;-72
2024/04/12 11:01:16;;;;;;;3.30;1.83;;;17.10;96.80;;;;;;474346;250;28843;-73
2024/04/12 11:03:24;;;;;;;1.60;1.27;;;17.00;95.50;;;;;;475221;249;28777;-72
2024/04/12 11:07:22;;;;;;;1.80;1.20;;;17.00;95.30;;;;;;475262;250;28838;-72
2024/04/12 11:09:38;;;;;;;1.30;1.20;;;17.30;95.70;;;;;;475265;249;28901;-72
2024/04/12 11:11:26;;;;;;;1.60;1.50;;;17.40;95.40;;;;;;473916;250;28879;-72
2024/04/12 11:13:29;;;;;;;1.70;1.33;;;17.50;95.20;;;;;;475213;250;28816;-71
2024/04/12 11:31:16;;;;;;;3.33;1.53;;;17.40;94.90;;;;;;475288;250;28858;-73
2024/04/12 11:33:17;;;;;;;2.63;1.60;;;17.20;95.10;;;;;;475282;249;29340;-72
2024/04/12 11:35:18;;;;;;;3.03;1.50;;;17.40;95.50;;;;;;475280;249;29404;-72
2024/04/12 11:37:22;;;;;;;1.50;1.40;;;17.50;95.00;;;;;;475258;250;29509;-72
2024/04/12 11:39:25;;;;;;;2.60;1.20;;;17.40;94.90;;;;;;475129;250;28777;-73
2024/04/12 11:41:24;;;;;;;1.47;1.37;;;17.30;94.70;;;;;;475001;250;28824;-73
2024/04/12 11:43:25;;;;;;;1.33;1.17;;;17.40;95.10;;;;;;475173;250;28779;-73
2024/04/12 11:45:25;;;;;;;1.30;1.20;;;17.40;94.70;;;;;;475225;249;28895;-73
2024/04/12 11:47:26;;;;;;;2.50;1.40;;;17.30;94.40;;;;;;475317;250;29209;-73
2024/04/12 11:49:27;;;;;;;1.50;1.40;;;17.40;94.80;;;;;;475310;249;28808;-72
2024/04/12 11:51:33;;;;;;;1.40;1.30;;;17.40;94.10;;;;;;475293;249;28807;-73
2024/04/12 11:53:30;;;;;;;1.63;1.50;;;17.30;94.40;;;;;;474961;250;28858;-72
2024/04/12 11:55:31;;;;;;;4.40;1.50;;;17.30;95.10;;;;;;475294;249;28805;-73